Time;durP1;ratioP1;P1;durP2;ratioP2;P2;SDS_P1;SDS_P2;PMS_P1;PMS_P2;Temp;Humidity;BMP_temperature;BMP_pressure;BME280_temperature;BME280_humidity;BME280_pressure;Samples;Min_cycle;Max_cycle;Signal;HPM_P1;HPM_P2
2023/01/17 00:00:28;;;;;;;;;;;;;;;3.17;100.00;96161.06;4200650;34;19990;-77
2023/01/17 00:03:14;;;;;;;;;;;;;;;2.99;100.00;96165.13;4197298;34;19951;-77
2023/01/17 00:11:10;;;;;;;;;;;;;;;3.12;100.00;96158.41;4185195;34;19944;-77
2023/01/17 00:13:36;;;;;;;;;;;;;;;2.85;100.00;96148.16;4192971;34;20373;-77
2023/01/17 00:16:02;;;;;;;;;;;;;;;3.29;100.00;96152.78;4197291;34;19939;-77
2023/01/17 00:18:28;;;;;;;;;;;;;;;3.16;100.00;96154.16;4188001;34;20398;-77
2023/01/17 00:26:25;;;;;;;;;;;;;;;3.18;100.00;96146.69;4210258;34;19943;-77
2023/01/17 03:00:30;;;;;;;;;;;;;;;3.30;100.00;96045.31;4932357;28;19973;-76
2023/01/17 03:03:03;;;;;;;;;;;;;;;3.17;100.00;96052.03;4248829;33;19953;-76
2023/01/17 03:05:40;;;;;;;;;;;;;;;3.01;100.00;96051.31;4256459;33;19945;-77
2023/01/17 03:08:07;;;;;;;;;;;;;;;3.41;100.00;96046.03;4239361;33;19943;-77
2023/01/17 03:10:34;;;;;;;;;;;;;;;3.45;100.00;96031.13;4241772;33;19989;-76
2023/01/17 03:13:01;;;;;;;;;;;;;;;3.37;100.00;96042.38;4241737;33;19938;-77
2023/01/17 03:15:28;;;;;;;;;;;;;;;3.50;100.00;96040.94;4227295;33;19986;-77
2023/01/17 03:17:57;;;;;;;;;;;;;;;3.34;100.00;96040.25;4226153;34;19950;-78
2023/01/17 03:20:29;;;;;;;;;;;;;;;3.34;100.00;96040.25;4226222;34;21111;-78
2023/01/17 03:22:55;;;;;;;;;;;;;;;3.23;100.00;96048.28;4226652;34;19943;-77
2023/01/17 03:25:21;;;;;;;;;;;;;;;3.25;100.00;96046.13;4227414;34;20316;-77
2023/01/17 03:27:48;;;;;;;;;;;;;;;3.23;100.00;96045.63;4221104;34;19983;-77
2023/01/17 03:30:14;;;;;;;;;;;;;;;3.13;100.00;96043.03;4216047;34;20305;-78
2023/01/17 03:32:41;;;;;;;;;;;;;;;3.10;100.00;96054.22;4211601;34;19939;-77
2023/01/17 03:35:07;;;;;;;;;;;;;;;3.06;100.00;96053.16;4212843;34;19977;-77
2023/01/17 03:37:34;;;;;;;;;;;;;;;3.37;100.00;96047.69;4192808;34;20339;-77
2023/01/17 03:40:00;;;;;;;;;;;;;;;3.31;100.00;96056.78;4196192;34;19954;-76
2023/01/17 03:42:26;;;;;;;;;;;;;;;3.44;100.00;96058.78;4186649;34;19951;-76
2023/01/17 03:44:52;;;;;;;;;;;;;;;3.35;100.00;96012.56;4186982;34;19973;-77
2023/01/17 03:47:18;;;;;;;;;;;;;;;3.51;100.00;96043.34;4211984;34;19969;-77
2023/01/17 03:49:44;;;;;;;;;;;;;;;3.75;100.00;96047.91;4171621;34;19960;-78
2023/01/17 03:52:11;;;;;;;;;;;;;;;3.27;100.00;96053.84;4188383;34;19951;-77
2023/01/17 03:54:37;;;;;;;;;;;;;;;3.67;100.00;96048.53;4206882;34;19962;-76
2023/01/17 03:57:03;;;;;;;;;;;;;;;3.33;100.00;96041.31;4206657;34;19943;-77
2023/01/17 03:59:32;;;;;;;;;;;;;;;3.39;100.00;96040.22;4199982;34;19963;-77
2023/01/17 04:01:58;;;;;;;;;;;;;;;3.39;100.00;96035.69;4198309;34;20290;-77
2023/01/17 04:04:25;;;;;;;;;;;;;;;3.47;100.00;96036.19;4201578;34;19939;-77
2023/01/17 04:06:51;;;;;;;;;;;;;;;3.57;100.00;96047.53;4211391;34;19946;-77
2023/01/17 04:09:17;;;;;;;;;;;;;;;3.80;100.00;96045.25;4202240;34;20011;-77
2023/01/17 04:11:44;;;;;;;;;;;;;;;3.97;100.00;96034.97;4198130;34;19947;-77
2023/01/17 04:14:10;;;;;;;;;;;;;;;4.07;100.00;96022.63;4198792;34;20035;-77
2023/01/17 04:16:36;;;;;;;;;;;;;;;4.10;100.00;96032.72;4208513;34;19961;-76
2023/01/17 04:19:03;;;;;;;;;;;;;;;3.94;100.00;96019.56;4196994;34;19943;-76
2023/01/17 04:21:29;;;;;;;;;;;;;;;4.05;100.00;96024.78;4207959;34;19947;-76
2023/01/17 04:23:55;;;;;;;;;;;;;;;3.69;100.00;96017.13;4206402;34;19959;-76
2023/01/17 04:26:22;;;;;;;;;;;;;;;3.59;100.00;96024.13;4197417;34;20323;-76
2023/01/17 04:28:48;;;;;;;;;;;;;;;3.83;100.00;96018.06;4204440;34;19999;-77
2023/01/17 04:31:15;;;;;;;;;;;;;;;4.09;100.00;96007.97;4196913;34;19950;-77
2023/01/17 04:33:41;;;;;;;;;;;;;;;3.72;100.00;96011.22;4230815;33;20017;-78
2023/01/17 04:36:07;;;;;;;;;;;;;;;4.04;100.00;96007.19;4239648;33;19946;-77
2023/01/17 04:38:34;;;;;;;;;;;;;;;3.79;100.00;96007.16;4239183;33;19942;-77
2023/01/17 04:41:00;;;;;;;;;;;;;;;3.46;100.00;96014.09;4196467;34;19974;-77
2023/01/17 04:43:26;;;;;;;;;;;;;;;3.50;100.00;96022.31;4203808;34;19940;-76
2023/01/17 04:45:53;;;;;;;;;;;;;;;3.48;100.00;96027.12;4198586;34;20267;-76
2023/01/17 04:48:19;;;;;;;;;;;;;;;3.62;100.00;96023.56;4197173;34;19944;-77
2023/01/17 04:50:46;;;;;;;;;;;;;;;3.54;100.00;96016.19;4190276;34;19964;-77
2023/01/17 04:53:12;;;;;;;;;;;;;;;3.66;100.00;96025.66;4183650;34;19952;-77
2023/01/17 04:55:38;;;;;;;;;;;;;;;3.47;100.00;96026.31;4183242;34;19975;-77
2023/01/17 04:58:04;;;;;;;;;;;;;;;3.47;100.00;96026.31;4183731;34;19959;-77
2023/01/17 05:00:30;;;;;;;;;;;;;;;3.70;100.00;96029.34;4183235;34;19999;-77
2023/01/17 05:02:56;;;;;;;;;;;;;;;3.39;100.00;96037.56;4183233;34;19944;-77
2023/01/17 05:05:23;;;;;;;;;;;;;;;3.17;100.00;96041.41;4183602;34;19965;-77
2023/01/17 05:07:52;;;;;;;;;;;;;;;3.10;100.00;96011.69;4180828;34;20398;-77
2023/01/17 05:10:19;;;;;;;;;;;;;;;3.26;100.00;96033.66;4195878;34;19973;-77
2023/01/17 05:12:52;;;;;;;;;;;;;;;3.03;100.00;96032.44;4215124;34;19951;-77
2023/01/17 05:15:18;;;;;;;;;;;;;;;3.20;100.00;96016.13;4225216;34;19953;-78
2023/01/17 05:17:44;;;;;;;;;;;;;;;3.22;100.00;96017.47;4195174;34;20327;-77
2023/01/17 05:20:11;;;;;;;;;;;;;;;3.12;100.00;96028.16;4197015;34;20287;-76
2023/01/17 05:22:37;;;;;;;;;;;;;;;3.21;100.00;96029.16;4194565;34;19952;-77
2023/01/17 05:25:03;;;;;;;;;;;;;;;3.25;100.00;96030.19;4197912;34;19947;-76
2023/01/17 05:27:29;;;;;;;;;;;;;;;3.17;100.00;96049.38;4209006;34;19950;-78
2023/01/17 05:29:56;;;;;;;;;;;;;;;2.99;100.00;96047.38;4223326;34;19956;-79
2023/01/17 05:32:22;;;;;;;;;;;;;;;3.21;100.00;96055.75;4222393;34;20884;-78
2023/01/17 05:34:49;;;;;;;;;;;;;;;3.23;100.00;96058.13;4197112;34;19950;-77
2023/01/17 05:37:16;;;;;;;;;;;;;;;3.02;100.00;96057.47;4189549;34;19951;-78
2023/01/17 05:39:42;;;;;;;;;;;;;;;3.17;100.00;96060.03;4170172;34;19960;-77
2023/01/17 05:42:08;;;;;;;;;;;;;;;3.09;100.00;96057.94;4182921;34;19975;-76
2023/01/17 05:44:35;;;;;;;;;;;;;;;2.61;100.00;96057.62;4175744;34;20001;-78
2023/01/17 05:47:01;;;;;;;;;;;;;;;2.76;100.00;96060.25;4172028;34;20290;-77
2023/01/17 05:49:27;;;;;;;;;;;;;;;2.96;100.00;96055.91;4191285;34;19987;-77
2023/01/17 05:51:53;;;;;;;;;;;;;;;2.70;100.00;96058.66;4197018;34;19943;-77
2023/01/17 05:54:20;;;;;;;;;;;;;;;2.81;100.00;96052.25;4194498;34;20356;-76
2023/01/17 05:56:46;;;;;;;;;;;;;;;2.86;100.00;96060.19;4196428;34;20604;-76
2023/01/17 05:59:12;;;;;;;;;;;;;;;2.91;100.00;96068.13;4182766;34;19947;-76
2023/01/17 06:01:38;;;;;;;;;;;;;;;2.77;100.00;96061.81;4182679;34;19956;-77
2023/01/17 06:04:05;;;;;;;;;;;;;;;2.88;100.00;96066.00;4185563;34;19956;-76
2023/01/17 06:06:30;;;;;;;;;;;;;;;2.83;100.00;96060.72;4196200;34;19982;-76
2023/01/17 06:08:57;;;;;;;;;;;;;;;2.53;100.00;96062.41;4200504;34;19997;-78
2023/01/17 06:11:23;;;;;;;;;;;;;;;2.96;100.00;96069.97;4208054;34;19957;-77
2023/01/17 06:13:49;;;;;;;;;;;;;;;2.96;100.00;96069.19;4212840;34;19959;-77
2023/01/17 06:16:15;;;;;;;;;;;;;;;3.14;100.00;96068.53;4211115;34;20345;-76
2023/01/17 06:18:42;;;;;;;;;;;;;;;3.12;100.00;96077.88;4211251;34;20337;-76
2023/01/17 06:21:09;;;;;;;;;;;;;;;2.81;100.00;96073.50;4214975;34;20006;-76
2023/01/17 06:23:35;;;;;;;;;;;;;;;2.85;100.00;96079.84;4212358;34;20303;-77
2023/01/17 06:26:02;;;;;;;;;;;;;;;2.77;100.00;96083.06;4213436;34;19980;-77
2023/01/17 06:28:29;;;;;;;;;;;;;;;3.20;100.00;96091.37;4212465;34;19967;-78
2023/01/17 06:30:55;;;;;;;;;;;;;;;2.61;100.00;96086.84;4211772;34;19991;-77
2023/01/17 06:33:22;;;;;;;;;;;;;;;2.67;100.00;96088.44;4213612;34;20433;-77
2023/01/17 06:35:48;;;;;;;;;;;;;;;2.71;100.00;96081.50;4207311;33;20017;-77
2023/01/17 06:38:15;;;;;;;;;;;;;;;2.87;100.00;96087.53;4230433;33;19958;-77
2023/01/17 06:40:41;;;;;;;;;;;;;;;2.72;100.00;96085.75;4232248;33;19960;-78
2023/01/17 06:43:08;;;;;;;;;;;;;;;2.66;100.00;96081.50;4230933;33;19994;-78
2023/01/17 06:45:39;;;;;;;;;;;;;;;3.03;100.00;96090.94;4230536;33;19983;-77
2023/01/17 06:48:06;;;;;;;;;;;;;;;2.90;100.00;96082.50;4233822;33;19948;-77
2023/01/17 06:50:32;;;;;;;;;;;;;;;3.09;100.00;96089.84;4233471;33;19956;-78
2023/01/17 06:53:01;;;;;;;;;;;;;;;2.90;100.00;96093.13;4227957;33;19958;-77
2023/01/17 06:55:28;;;;;;;;;;;;;;;2.88;100.00;96103.22;4230325;33;19984;-78
2023/01/17 06:57:55;;;;;;;;;;;;;;;2.93;100.00;96112.25;4230819;33;19957;-78
2023/01/17 07:00:21;;;;;;;;;;;;;;;2.82;100.00;96117.59;4231961;33;19946;-78
2023/01/17 07:02:49;;;;;;;;;;;;;;;3.06;100.00;96109.00;4232264;33;19993;-79
2023/01/17 07:05:18;;;;;;;;;;;;;;;2.91;100.00;96110.66;4230360;33;20408;-77
2023/01/17 07:07:45;;;;;;;;;;;;;;;2.79;100.00;96112.81;4239092;33;19955;-78
2023/01/17 07:10:12;;;;;;;;;;;;;;;2.87;100.00;96119.44;4240256;33;19943;-77
2023/01/17 07:12:38;;;;;;;;;;;;;;;3.13;100.00;96111.34;4237169;33;19996;-77
2023/01/17 07:15:05;;;;;;;;;;;;;;;2.83;100.00;96124.50;4237828;33;19938;-77
2023/01/17 07:17:32;;;;;;;;;;;;;;;2.75;100.00;96116.31;4239602;33;20013;-77
2023/01/17 07:19:59;;;;;;;;;;;;;;;2.84;100.00;96104.84;4239887;33;20380;-77
2023/01/17 07:22:25;;;;;;;;;;;;;;;2.85;100.00;96111.72;4240261;33;19960;-77
2023/01/17 07:24:57;;;;;;;;;;;;;;;3.01;100.00;96122.31;4238924;33;19942;-77
2023/01/17 07:27:24;;;;;;;;;;;;;;;2.69;100.00;96128.78;4237152;33;20264;-77
2023/01/17 07:29:50;;;;;;;;;;;;;;;3.12;100.00;96118.53;4241069;33;19946;-77
2023/01/17 07:32:17;;;;;;;;;;;;;;;2.69;100.00;96123.47;4239697;33;19948;-76
2023/01/17 07:34:43;;;;;;;;;;;;;;;2.77;100.00;96120.25;4225073;34;19982;-77
2023/01/17 07:37:09;;;;;;;;;;;;;;;2.98;100.00;96114.87;4216595;34;19969;-77
2023/01/17 07:39:36;;;;;;;;;;;;;;;2.77;100.00;96088.38;4218701;34;20225;-78
2023/01/17 07:42:02;;;;;;;;;;;;;;;2.99;100.00;96117.28;4217115;34;20283;-77
2023/01/17 07:44:28;;;;;;;;;;;;;;;2.97;100.00;96113.28;4218782;34;20341;-75
2023/01/17 07:47:01;;;;;;;;;;;;;;;3.02;100.00;96130.03;4217979;34;19953;-77
2023/01/17 07:49:28;;;;;;;;;;;;;;;3.15;100.00;96131.28;4215720;34;19992;-76
2023/01/17 07:51:54;;;;;;;;;;;;;;;3.14;100.00;96127.03;4219480;34;19954;-75
2023/01/17 07:54:20;;;;;;;;;;;;;;;3.42;100.00;96146.06;4220336;34;19953;-76
2023/01/17 07:56:46;;;;;;;;;;;;;;;3.28;100.00;96138.66;4219345;34;19952;-76
2023/01/17 07:59:12;;;;;;;;;;;;;;;3.39;100.00;96135.97;4218304;34;19963;-77
2023/01/17 08:01:39;;;;;;;;;;;;;;;3.03;100.00;96133.47;4215229;34;19951;-77
2023/01/17 08:04:05;;;;;;;;;;;;;;;3.20;100.00;96131.25;4223658;34;19965;-77
2023/01/17 08:06:32;;;;;;;;;;;;;;;3.17;100.00;96134.47;4236854;33;20004;-77
2023/01/17 08:08:58;;;;;;;;;;;;;;;3.14;100.00;96129.69;4239731;33;20003;-77
2023/01/17 08:11:25;;;;;;;;;;;;;;;3.08;100.00;96136.13;4239275;33;19967;-77
2023/01/17 08:13:58;;;;;;;;;;;;;;;3.43;100.00;96142.31;4239822;33;19997;-77
2023/01/17 08:16:25;;;;;;;;;;;;;;;3.25;100.00;96135.75;4242886;33;20004;-77
2023/01/17 08:18:51;;;;;;;;;;;;;;;3.24;100.00;96150.16;4241210;33;19998;-77
2023/01/17 08:21:18;;;;;;;;;;;;;;;3.25;100.00;96152.50;4239144;33;19986;-77
2023/01/17 08:23:48;;;;;;;;;;;;;;;3.25;100.00;96157.81;4240160;33;19953;-77
2023/01/17 08:26:20;;;;;;;;;;;;;;;3.07;100.00;96161.91;4240913;33;20308;-77
2023/01/17 08:28:59;;;;;;;;;;;;;;;3.18;100.00;96162.66;4224986;33;19955;-78
2023/01/17 08:31:26;;;;;;;;;;;;;;;3.30;100.00;96166.87;4223533;34;19962;-77
2023/01/17 08:33:59;;;;;;;;;;;;;;;3.51;100.00;96165.72;4195682;34;19943;-77
2023/01/17 08:36:27;;;;;;;;;;;;;;;3.45;100.00;96166.81;4197583;34;19962;-77
2023/01/17 08:38:53;;;;;;;;;;;;;;;3.42;100.00;96164.69;4195695;34;19965;-77
2023/01/17 08:41:20;;;;;;;;;;;;;;;3.47;100.00;96158.53;4199489;34;19959;-77
2023/01/17 08:43:47;;;;;;;;;;;;;;;3.76;100.00;96166.63;4204775;34;19963;-77
2023/01/17 08:46:14;;;;;;;;;;;;;;;3.66;100.00;96172.00;4197717;34;19951;-78
2023/01/17 08:48:40;;;;;;;;;;;;;;;3.57;100.00;96169.13;4197510;34;19947;-76
2023/01/17 08:51:06;;;;;;;;;;;;;;;3.71;100.00;96169.31;4197169;34;19977;-77
2023/01/17 08:53:33;;;;;;;;;;;;;;;4.05;100.00;96168.56;4195035;34;19972;-77
2023/01/17 08:56:00;;;;;;;;;;;;;;;3.61;100.00;96162.19;4195927;34;19944;-78
2023/01/17 08:58:27;;;;;;;;;;;;;;;3.84;100.00;96168.69;4196117;34;19973;-78
2023/01/17 09:00:53;;;;;;;;;;;;;;;4.06;100.00;96173.59;4190142;34;19969;-77
2023/01/17 09:03:20;;;;;;;;;;;;;;;3.95;100.00;96170.22;4188056;34;19951;-77
2023/01/17 09:05:46;;;;;;;;;;;;;;;3.68;100.00;96143.25;4224640;33;19993;-77
2023/01/17 09:08:12;;;;;;;;;;;;;;;3.91;100.00;96179.84;4201629;34;19947;-78
2023/01/17 09:10:38;;;;;;;;;;;;;;;3.68;100.00;96180.50;4165551;34;19987;-78
2023/01/17 09:13:05;;;;;;;;;;;;;;;4.00;100.00;96180.84;4162272;34;20363;-77
2023/01/17 09:15:31;;;;;;;;;;;;;;;3.74;100.00;96180.19;4160230;34;19958;-77
2023/01/17 09:17:57;;;;;;;;;;;;;;;3.88;100.00;96180.38;4161844;34;20143;-77
2023/01/17 09:20:28;;;;;;;;;;;;;;;3.90;100.00;96190.75;4163945;34;19945;-76
2023/01/17 09:22:55;;;;;;;;;;;;;;;4.11;100.00;96194.06;4161879;34;19948;-76
2023/01/17 09:25:21;;;;;;;;;;;;;;;4.08;100.00;96195.41;4160075;34;20347;-77
2023/01/17 09:27:47;;;;;;;;;;;;;;;4.14;100.00;96193.53;4162094;34;20101;-77
2023/01/17 09:30:14;;;;;;;;;;;;;;;4.33;100.00;96194.44;4162468;34;19954;-77
2023/01/17 09:32:40;;;;;;;;;;;;;;;3.99;100.00;96203.22;4158374;34;20271;-78
2023/01/17 09:35:07;;;;;;;;;;;;;;;4.11;100.00;96204.72;4162292;34;19951;-76
2023/01/17 09:37:33;;;;;;;;;;;;;;;4.09;100.00;96196.22;4147117;34;20008;-77
2023/01/17 09:40:00;;;;;;;;;;;;;;;4.04;100.00;96201.56;4156624;34;20068;-77
2023/01/17 09:42:25;;;;;;;;;;;;;;;4.22;100.00;96206.25;4147756;34;19991;-77
2023/01/17 09:44:52;;;;;;;;;;;;;;;4.21;100.00;96204.66;4153953;34;19951;-76
2023/01/17 09:47:33;;;;;;;;;;;;;;;4.29;100.00;96203.25;4178022;34;19990;-77
2023/01/17 09:50:06;;;;;;;;;;;;;;;4.07;100.00;96204.50;4182205;34;20597;-78
2023/01/17 09:52:32;;;;;;;;;;;;;;;4.17;100.00;96207.06;4185547;34;20260;-77
2023/01/17 09:54:58;;;;;;;;;;;;;;;4.34;100.00;96197.87;4185346;34;20011;-77
2023/01/17 09:57:40;;;;;;;;;;;;;;;4.37;100.00;96198.16;4202312;34;19935;-77
2023/01/17 10:00:18;;;;;;;;;;;;;;;4.28;100.00;96210.47;4220079;34;19951;-76
2023/01/17 10:02:53;;;;;;;;;;;;;;;4.42;100.00;96204.50;4226548;33;19954;-77
2023/01/17 10:05:25;;;;;;;;;;;;;;;4.57;100.00;96207.03;4224851;33;20107;-76
2023/01/17 10:08:00;;;;;;;;;;;;;;;4.43;100.00;96208.75;4228561;33;19956;-77
2023/01/17 10:10:38;;;;;;;;;;;;;;;4.39;100.00;96199.72;4240030;33;19946;-77
2023/01/17 10:13:10;;;;;;;;;;;;;;;4.59;100.00;96210.22;4234721;33;20300;-78
2023/01/17 10:15:43;;;;;;;;;;;;;;;4.50;100.00;96214.53;4233558;33;19950;-78
2023/01/17 10:18:27;;;;;;;;;;;;;;;4.30;100.00;96208.31;4235672;33;19964;-78
2023/01/17 10:21:06;;;;;;;;;;;;;;;4.65;100.00;96209.09;4234492;33;20012;-75
2023/01/17 10:23:51;;;;;;;;;;;;;;;4.47;100.00;96207.13;4232703;33;19948;-77
2023/01/17 10:26:23;;;;;;;;;;;;;;;4.78;100.00;96202.31;4235678;33;19947;-77
2023/01/17 10:28:51;;;;;;;;;;;;;;;4.53;100.00;96206.00;4204693;34;19959;-78
2023/01/17 10:31:18;;;;;;;;;;;;;;;4.11;100.00;96205.50;4211737;34;19997;-78
2023/01/17 10:33:51;;;;;;;;;;;;;;;4.59;100.00;96215.53;4210840;34;20060;-77
2023/01/17 10:36:19;;;;;;;;;;;;;;;4.43;100.00;96216.75;4183385;34;19997;-78
2023/01/17 10:38:51;;;;;;;;;;;;;;;4.89;100.00;96219.78;4185338;34;20402;-79
2023/01/17 10:41:32;;;;;;;;;;;;;;;4.48;100.00;96219.38;4180516;34;19955;-79
2023/01/17 10:44:00;;;;;;;;;;;;;;;4.55;100.00;96219.84;4187280;34;19990;-79
